DON PEDRO RESERVOIR (DNP)

Elevation: 830' · TUOLUMNE R basin · Operator: Turlock Irrigation District


Station comments:

11/04/2014Hourly storage has resumed as of 11/4/2014. It had previously stopped at 11/25/2009.


Provisional data, subject to change.
Query executed Thursday at 3:58:41   clock

Select a sensor type for a plot of data.
Note: Reservoir Flows are daily averages.

Earlier

Date RES ELE    STORAGE    RES CHG    TOC STO    ABV TOC    OUTFLOW    INFLOW    PPT INC   
 FEET   AF   AF   AF   AF   CFS   CFS   INCHES  
12/30/2014 698.60 793478 1619 1690000 -- 176 1156 0.00
12/31/2014 698.65 793802 648 1690000 r -896198 r -- -- --
01/01/2015 698.86 794775 649 1690000 -- 175 502 0.00
01/02/2015 699.05 796073 1297 1690000 -- 167 821 0.00
01/03/2015 699.18 797372 1299 1690000 -- 176 830 0.00
01/04/2015 699.30 797372 976 1690000 -892628 175 175 0.00
01/05/2015 699.44 798023 976 1690000 -891977 175 503 0.00
01/06/2015 699.62 799976 1627 1690000 -890024 175 1160 0.00
01/07/2015 699.79 800628 978 1690000 -- 174 503 0.00
01/08/2015 699.98 802500 1304 1690000 -887500 174 1118 0.00
01/09/2015 700.17 803807 981 1690000 -- 175 834 0.00
01/10/2015 700.37 805116 653 1690000 -- 177 837 0.00
01/11/2015 700.49 805770 1636 1690000 -884230 178 508 0.00
01/12/2015 700.72 807081 655 -- -- 177 828 0.00
01/13/2015 700.93 808392 983 -- -- 172 833 0.00
01/14/2015 701.11 809706 1314 -- -- 168 831 0.00
01/15/2015 701.27 811021 657 -- -- 170 833 0.00
01/16/2015 701.40 811679 329 1690000 -- 179 511 0.00
01/17/2015 70157.00 812995 658 1690000 -- 174 837 0.00
01/18/2015 701.69 813655 658 1690000 -- 173 506 0.00
01/19/2015 701.85 814974 1319 1690000 -- 167 832 0.00
01/20/2015 702.01 815634 330 1690000 -874366 165 498 0.00
01/21/2015 702.22 816955 1321 1690000 -873045 169 835 0.00
01/22/2015 702.29 817616 0 1690000 -872384 162 495 0.00
01/23/2015 702.50 818940 993 1690000 -- 149 816 0.00
01/24/2015 702.62 819602 993 1690000 -- 170 504 0.00
01/25/2015 702.77 820928 663 1690000 -869072 231 899 0.00
01/26/2015 702.92 821592 332 1690000 -868408 158 492 0.00
01/27/2015 703.11 822920 996 1690000 -- 171 841 0.00
01/28/2015 703.15 823252 332 -- -- -- -- --
01/29/2015 -- -- -- -- -- -- -- --

Later | Latest

Warning! This data is preliminary and subject to revision.

Show DNP Map | Plot DNP Data | 1 Month DNP Data | Real-Time DNP Data | DNP Info